Aérodrome :
LOGIN :

S'inscrire | Disclaimer

   EN    FR    IT 

 










Légende :    VFR   VFR Marginal   IFR   IFR Intensif   IFR Très Intensif
Visi : 
Plafond : 
>= 8 km
>= 3000ft
5 à 8 km
1000 à 3000 ft
1500m à 5 km
500 à 1000 ft
800 à 1500m
200 à 500 ft
< 800m
< 200 ft
Symboles :   Orages  Brouillard  Fortes neiges  Fortes précipitations  Vent > 20 kt
SIGMETs :   Divers  Orages  Givrage  Turbulence  Onde Orograph.  Cendres Volcan.






- Altitude de l'aérodrome : 13 ft
- Code IATA : LYX


EGMD - Lydd

DERNIER METAR :
  • 122050Z AUTO 24017KT 9999 BKN035/// BKN040/// 09/07 Q0978

METARs EXPIRÉS :
  • 122020Z AUTO 25020KT 9999 FEW015/// 09/07 Q0978
  • 121950Z AUTO 25019KT 9999 BKN017/// BKN022/// 09/07 Q0978
  • 121920Z AUTO 25024KT 9999 BKN015/// OVC020/// 09/08 Q0978
  • 121850Z AUTO 24022KT 9999 FEW009/// BKN014/// BKN021/// 10/09 Q0977
  • 121820Z 18027KT 8000 -DZ SCT007 BKN010 09/09 Q0978

TAF TAF EGMD
Valide du 12 à 21h jusqu'au 13 à 06h UTC


122002Z 1221/1306 22015KT 9999 BKN025
BECMG 1223/1302 26020KT
TEMPO 1223/1306 6000 RA BKN010
PROB30
TEMPO 1223/1302 3000 +RA BKN007
TEMPO 1300/1306 27020G30KT
ATIS : +44 1797 322 422



MET'MAP, la Météo Aéronautique d'un coup d'oeil ! - Copyright ORBIFLY Décembre 2007 - Disclaimer

ORBIFLY MET'MAP TEAM :

Programmation & Développement : Alexandra Zaïnal
Sur une idée originale de : Baudouin d'Aumeries
Assistance à la programmation : Marc-Olivier Méhu
Soutien technique & logistique : Manuel Goepfert

Contact : metmap@orbifly.com




SOURCES & CREDITS :

   NOAA